createdAt,value
2022-11-17T00:00:41.915Z,13.70
2022-11-17T00:03:14.039Z,12.53
2022-11-17T00:05:41.180Z,13.13
2022-11-17T00:08:07.914Z,10.43
2022-11-17T00:10:34.686Z,14.00
2022-11-17T00:13:20.481Z,14.77
2022-11-17T00:15:47.649Z,11.40
2022-11-17T00:18:33.109Z,11.33
2022-11-17T00:21:20.889Z,18.97
2022-11-17T00:23:48.372Z,11.87
2022-11-17T00:26:27.950Z,12.83
2022-11-17T00:28:57.131Z,11.10
2022-11-17T00:31:44.568Z,13.87
2022-11-17T00:34:23.972Z,14.17
2022-11-17T00:36:53.867Z,11.90
2022-11-17T00:39:22.783Z,15.03
2022-11-17T00:41:52.020Z,10.07
2022-11-17T00:44:20.098Z,13.73
2022-11-17T00:46:47.241Z,11.80
2022-11-17T00:49:14.697Z,13.80
2022-11-17T00:51:45.010Z,12.23
2022-11-17T00:54:13.401Z,15.83
2022-11-17T00:56:41.346Z,11.20
2022-11-17T00:59:08.209Z,13.67
2022-11-17T01:01:35.706Z,13.03
2022-11-17T01:04:04.094Z,12.57
2022-11-17T01:06:54.136Z,13.50
2022-11-17T01:09:23.945Z,11.47
2022-11-17T01:11:53.099Z,10.40
2022-11-17T01:14:26.203Z,11.33
2022-11-17T01:16:55.556Z,10.57
2022-11-17T01:19:24.117Z,13.37
2022-11-17T01:21:51.209Z,10.60
2022-11-17T01:24:18.919Z,11.27
2022-11-17T01:26:46.167Z,11.10
2022-11-17T01:29:17.328Z,12.00
2022-11-17T01:31:45.885Z,11.87
2022-11-17T01:34:13.279Z,12.10
2022-11-17T01:37:01.965Z,13.93
2022-11-17T01:39:30.418Z,11.90
2022-11-17T01:41:57.918Z,13.73
2022-11-17T01:44:48.679Z,12.40
2022-11-17T01:47:37.884Z,11.53
2022-11-17T01:50:20.143Z,12.70
2022-11-17T01:52:50.487Z,13.30
2022-11-17T01:55:21.242Z,13.90
2022-11-17T01:57:55.582Z,18.60
2022-11-17T02:00:22.943Z,16.33
2022-11-17T02:02:51.867Z,20.50
2022-11-17T02:05:43.252Z,16.47
2022-11-17T02:08:12.883Z,20.73
2022-11-17T02:10:40.121Z,13.20
2022-11-17T02:13:10.271Z,15.37
2022-11-17T02:15:38.262Z,19.40
2022-11-17T02:18:07.256Z,17.63
2022-11-17T02:21:02.478Z,23.00
2022-11-17T02:24:05.271Z,19.37
2022-11-17T02:26:54.223Z,18.07
2022-11-17T02:29:43.942Z,17.80
2022-11-17T02:32:24.442Z,22.17
2022-11-17T02:35:22.598Z,19.80
2022-11-17T02:38:11.099Z,18.67
2022-11-17T02:40:48.364Z,15.63
2022-11-17T02:43:38.927Z,26.73
2022-11-17T02:46:19.647Z,20.87
2022-11-17T02:49:00.533Z,16.70
2022-11-17T02:51:29.601Z,18.83
2022-11-17T02:53:58.122Z,18.33
2022-11-17T02:56:24.870Z,16.53
2022-11-17T02:58:57.732Z,19.37
2022-11-17T03:01:30.250Z,16.03
2022-11-17T03:04:28.585Z,17.97
2022-11-17T03:07:26.840Z,16.37
2022-11-17T03:10:02.993Z,17.13
2022-11-17T03:12:50.162Z,15.17
2022-11-17T03:15:32.819Z,16.97
2022-11-17T03:18:29.119Z,17.23
2022-11-17T03:20:59.270Z,15.70
2022-11-17T03:23:36.697Z,13.73
2022-11-17T03:26:07.669Z,14.00
2022-11-17T03:28:34.495Z,13.73
2022-11-17T03:31:05.208Z,13.83
2022-11-17T03:33:33.868Z,12.43
2022-11-17T03:36:26.040Z,13.03
2022-11-17T03:39:11.482Z,13.90
2022-11-17T03:41:47.482Z,15.47
2022-11-17T03:44:16.632Z,17.97
2022-11-17T03:46:48.110Z,20.57
2022-11-17T03:49:24.484Z,13.67
2022-11-17T03:51:51.851Z,14.53
2022-11-17T03:54:18.800Z,14.07
2022-11-17T03:56:51.658Z,18.20
2022-11-17T03:59:32.170Z,16.50
2022-11-17T04:01:59.797Z,13.97
2022-11-17T04:04:47.400Z,23.77
2022-11-17T04:07:14.738Z,14.97
2022-11-17T04:09:41.527Z,16.37
2022-11-17T04:12:27.886Z,17.50
2022-11-17T04:15:13.770Z,12.97
2022-11-17T04:17:43.794Z,14.70
2022-11-17T04:20:12.679Z,16.67
2022-11-17T04:22:39.485Z,14.03
2022-11-17T04:25:06.424Z,13.57
2022-11-17T04:27:52.067Z,15.37
2022-11-17T04:30:19.410Z,13.90
2022-11-17T04:32:47.691Z,16.83
2022-11-17T04:35:14.450Z,15.33
2022-11-17T04:37:41.630Z,15.27
2022-11-17T04:40:12.693Z,18.20
2022-11-17T04:42:39.425Z,20.80
2022-11-17T04:45:07.010Z,18.13
2022-11-17T04:47:34.356Z,21.07
2022-11-17T04:50:01.153Z,16.60
2022-11-17T04:52:29.910Z,14.60
2022-11-17T04:54:58.150Z,15.03
2022-11-17T04:57:25.331Z,22.60
2022-11-17T04:59:52.035Z,15.30
2022-11-17T05:02:18.867Z,17.27
2022-11-17T05:04:58.208Z,14.13
2022-11-17T05:07:25.439Z,14.10
2022-11-17T05:09:52.252Z,15.10
2022-11-17T05:12:38.803Z,13.93
2022-11-17T05:15:09.870Z,13.87
2022-11-17T05:17:37.018Z,15.77
2022-11-17T05:20:04.098Z,13.10
2022-11-17T05:22:49.809Z,20.30
2022-11-17T05:25:18.724Z,15.50
2022-11-17T05:27:45.470Z,12.93
2022-11-17T05:30:15.704Z,18.63
2022-11-17T05:32:42.436Z,15.03
2022-11-17T05:35:09.386Z,13.27
2022-11-17T05:37:36.538Z,13.00
2022-11-17T05:40:03.390Z,16.23
2022-11-17T05:42:30.498Z,15.83
2022-11-17T05:44:57.234Z,15.80
2022-11-17T05:47:24.369Z,13.77
2022-11-17T05:49:53.834Z,13.10
2022-11-17T05:52:21.005Z,12.97
2022-11-17T05:54:47.797Z,12.13
2022-11-17T05:57:24.954Z,12.63
2022-11-17T05:59:59.570Z,11.77
2022-11-17T06:02:32.538Z,11.77
2022-11-17T06:04:59.238Z,11.40
2022-11-17T06:07:26.792Z,10.73
2022-11-17T06:09:58.618Z,11.27
2022-11-17T06:12:25.454Z,12.60
2022-11-17T06:14:52.212Z,11.60
2022-11-17T06:17:40.072Z,10.80
2022-11-17T06:20:21.668Z,11.57
2022-11-17T06:22:50.044Z,11.20
2022-11-17T06:25:19.827Z,11.70
2022-11-17T06:27:51.070Z,11.90
2022-11-17T06:30:18.318Z,12.07
2022-11-17T06:32:48.400Z,13.40
2022-11-17T06:35:16.542Z,15.37
2022-11-17T06:37:44.333Z,15.00
2022-11-17T06:40:13.753Z,13.57
2022-11-17T06:42:59.843Z,12.43
2022-11-17T06:45:26.738Z,11.27
2022-11-17T06:47:54.340Z,11.60
2022-11-17T06:50:21.757Z,11.27
2022-11-17T06:52:50.685Z,11.67
2022-11-17T06:55:18.843Z,11.03
2022-11-17T06:57:50.332Z,10.67
2022-11-17T07:00:20.249Z,10.33
2022-11-17T07:02:47.455Z,11.20
2022-11-17T07:05:14.264Z,10.87
2022-11-17T07:07:41.457Z,9.80
2022-11-17T07:10:09.269Z,4.23
2022-11-17T07:12:36.041Z,4.70
2022-11-17T07:15:03.323Z,4.83
2022-11-17T07:17:30.256Z,4.30
2022-11-17T07:19:57.084Z,4.03
2022-11-17T07:22:23.839Z,4.27
2022-11-17T07:24:50.533Z,4.20
2022-11-17T07:27:17.648Z,3.93
2022-11-17T07:29:45.258Z,3.40
2022-11-17T07:32:14.327Z,3.40
2022-11-17T07:34:42.367Z,3.17
2022-11-17T07:37:09.571Z,2.63
2022-11-17T07:39:39.251Z,3.10
2022-11-17T07:42:06.152Z,2.67
2022-11-17T07:44:33.471Z,2.63
2022-11-17T07:47:01.684Z,2.90
2022-11-17T07:49:28.800Z,2.60
2022-11-17T07:51:55.733Z,2.77
2022-11-17T07:54:22.893Z,2.40
2022-11-17T07:56:49.689Z,2.10
2022-11-17T07:59:21.334Z,2.50
2022-11-17T08:01:48.412Z,2.63
2022-11-17T08:04:17.287Z,2.20
2022-11-17T08:06:44.099Z,2.43
2022-11-17T08:09:13.560Z,2.20
2022-11-17T08:11:40.463Z,2.23
2022-11-17T08:14:07.207Z,2.10
2022-11-17T08:16:34.026Z,2.07
2022-11-17T08:19:01.285Z,2.00
2022-11-17T08:21:28.060Z,2.20
2022-11-17T08:23:56.538Z,1.90
2022-11-17T08:26:26.020Z,2.10
2022-11-17T08:28:58.104Z,2.23
2022-11-17T08:31:26.125Z,2.10
2022-11-17T08:33:56.496Z,2.00
2022-11-17T08:36:24.278Z,2.10
2022-11-17T08:38:51.386Z,1.90
2022-11-17T08:41:20.155Z,2.13
2022-11-17T08:43:47.009Z,1.80
2022-11-17T08:46:14.505Z,2.03
2022-11-17T08:48:41.693Z,2.10
2022-11-17T08:51:10.703Z,1.77
2022-11-17T08:53:37.462Z,1.90
2022-11-17T08:56:09.418Z,2.00
2022-11-17T08:58:45.590Z,1.80
2022-11-17T09:01:19.003Z,1.83
2022-11-17T09:03:48.731Z,1.83
2022-11-17T09:06:17.142Z,1.70
2022-11-17T09:08:45.922Z,1.57
2022-11-17T09:11:14.873Z,1.80
2022-11-17T09:13:42.620Z,1.43
2022-11-17T09:16:11.862Z,1.80
2022-11-17T09:18:39.862Z,1.57
2022-11-17T09:21:11.778Z,1.50
2022-11-17T09:23:39.271Z,1.57
2022-11-17T09:26:14.063Z,1.90
2022-11-17T09:28:43.606Z,1.57
2022-11-17T09:31:13.275Z,1.63
2022-11-17T09:33:48.289Z,1.53
2022-11-17T09:36:16.679Z,1.50
2022-11-17T09:38:44.278Z,1.43
2022-11-17T09:41:18.466Z,1.50
2022-11-17T09:43:52.565Z,1.40
2022-11-17T09:46:34.173Z,1.77
2022-11-17T09:49:41.835Z,1.43
2022-11-17T09:52:34.573Z,1.43
2022-11-17T09:55:15.696Z,1.73
2022-11-17T09:58:08.599Z,1.50
2022-11-17T10:00:38.698Z,1.77
2022-11-17T10:03:15.723Z,1.50
2022-11-17T10:05:42.685Z,1.70
2022-11-17T10:08:14.839Z,1.50
2022-11-17T10:10:48.122Z,1.50
2022-11-17T10:13:36.772Z,1.30
2022-11-17T10:16:14.356Z,1.50
2022-11-17T10:18:42.102Z,1.40
2022-11-17T10:21:09.744Z,1.70
2022-11-17T10:23:47.104Z,1.50
2022-11-17T10:26:15.981Z,1.60
2022-11-17T10:31:44.504Z,1.73
2022-11-17T10:34:34.152Z,2.30
2022-11-17T10:37:27.289Z,2.47
2022-11-17T10:40:13.054Z,2.30
2022-11-17T10:42:42.527Z,2.47
2022-11-17T10:45:16.668Z,2.40
2022-11-17T10:47:43.645Z,2.90
2022-11-17T10:50:33.910Z,2.60
2022-11-17T10:53:23.246Z,2.40
2022-11-17T10:55:57.925Z,3.20
2022-11-17T10:58:28.366Z,3.63
2022-11-17T11:01:01.799Z,3.23
2022-11-17T11:03:31.442Z,3.10
2022-11-17T11:05:58.167Z,3.80
2022-11-17T11:08:46.931Z,4.00
2022-11-17T11:11:31.979Z,4.17
2022-11-17T11:14:11.140Z,4.30
2022-11-17T11:16:37.937Z,4.60
2022-11-17T11:19:14.524Z,5.53
2022-11-17T11:21:49.498Z,5.97
2022-11-17T11:24:41.816Z,6.23
2022-11-17T11:27:24.063Z,7.03
2022-11-17T11:30:09.695Z,7.87
2022-11-17T11:32:53.007Z,7.90
2022-11-17T11:36:01.383Z,9.07
2022-11-17T11:39:00.726Z,11.90
2022-11-17T11:41:27.502Z,11.10
2022-11-17T11:43:54.799Z,9.97
2022-11-17T11:46:49.950Z,9.50
2022-11-17T11:49:31.203Z,8.87
2022-11-17T11:51:59.090Z,9.60
2022-11-17T11:54:50.772Z,8.30
2022-11-17T11:57:26.332Z,8.03
2022-11-17T12:00:03.697Z,7.70
2022-11-17T12:02:59.520Z,7.07
2022-11-17T12:05:32.313Z,7.03
2022-11-17T12:08:10.875Z,7.20
2022-11-17T12:11:29.859Z,6.93
2022-11-17T12:13:58.175Z,6.70
2022-11-17T12:16:50.406Z,6.97
2022-11-17T12:19:42.987Z,7.40
2022-11-17T12:22:19.679Z,6.57
2022-11-17T12:24:51.797Z,7.87
2022-11-17T12:27:53.397Z,6.73
2022-11-17T12:30:37.651Z,6.90
2022-11-17T12:33:08.412Z,6.93
2022-11-17T12:35:39.966Z,7.17
2022-11-17T12:38:17.065Z,7.33
2022-11-17T12:40:44.110Z,7.27
2022-11-17T12:43:17.054Z,7.40
2022-11-17T12:45:55.790Z,6.00
2022-11-17T12:48:35.453Z,7.03
2022-11-17T12:51:27.554Z,7.57
2022-11-17T12:54:00.197Z,7.37
2022-11-17T12:56:51.695Z,7.37
2022-11-17T12:59:52.337Z,7.87
2022-11-17T13:02:38.548Z,7.00
2022-11-17T13:05:17.384Z,7.43
2022-11-17T13:07:44.688Z,6.93
2022-11-17T13:10:29.531Z,7.53
2022-11-17T13:13:24.230Z,7.60
2022-11-17T13:15:59.833Z,6.90
2022-11-17T13:18:31.440Z,6.83
2022-11-17T13:20:58.515Z,6.90
2022-11-17T13:23:28.415Z,7.00
2022-11-17T13:26:17.107Z,7.00
2022-11-17T13:28:45.685Z,6.93
2022-11-17T13:31:21.579Z,6.60
2022-11-17T13:34:13.552Z,6.57
2022-11-17T13:37:00.991Z,6.60
2022-11-17T13:39:28.559Z,7.13
2022-11-17T13:41:57.458Z,7.20
2022-11-17T13:44:27.848Z,7.10
2022-11-17T13:46:55.351Z,7.47
2022-11-17T13:49:39.503Z,7.63
2022-11-17T13:52:35.244Z,7.50
2022-11-17T13:55:18.905Z,7.37
2022-11-17T13:58:06.411Z,7.13
2022-11-17T14:00:34.203Z,7.00
2022-11-17T14:03:06.119Z,7.90
2022-11-17T14:05:33.559Z,6.77
2022-11-17T14:08:22.092Z,6.73
2022-11-17T14:10:49.202Z,6.60
2022-11-17T14:13:22.937Z,6.40
2022-11-17T14:15:57.159Z,6.30
2022-11-17T14:18:28.601Z,5.20
2022-11-17T14:21:12.363Z,5.40
2022-11-17T14:23:39.854Z,4.93
2022-11-17T14:26:12.876Z,4.97
2022-11-17T14:28:39.882Z,4.40
2022-11-17T14:31:12.617Z,4.20
2022-11-17T14:33:39.983Z,4.23
2022-11-17T14:36:13.166Z,3.60
2022-11-17T14:38:40.376Z,4.00
2022-11-17T14:41:07.529Z,3.97
2022-11-17T14:43:34.613Z,3.83
2022-11-17T14:46:01.848Z,3.53
2022-11-17T14:48:28.605Z,3.27
2022-11-17T14:51:00.046Z,3.13
2022-11-17T14:53:27.499Z,3.03
2022-11-17T14:55:54.274Z,2.70
2022-11-17T14:58:22.005Z,2.73
2022-11-17T15:00:48.972Z,3.20
2022-11-17T15:03:15.811Z,2.70
2022-11-17T15:05:46.725Z,2.70
2022-11-17T15:08:15.110Z,2.60
2022-11-17T15:10:46.162Z,2.70
2022-11-17T15:13:12.922Z,2.33
2022-11-17T15:15:40.601Z,2.87
2022-11-17T15:18:09.481Z,2.10
2022-11-17T15:20:38.396Z,2.43
2022-11-17T15:23:05.122Z,2.73
2022-11-17T15:25:31.952Z,2.50
2022-11-17T15:27:58.759Z,2.90
2022-11-17T15:30:25.653Z,3.37
2022-11-17T15:32:52.577Z,3.60
2022-11-17T15:35:21.968Z,3.50
2022-11-17T15:37:48.778Z,3.17
2022-11-17T15:40:19.350Z,3.30
2022-11-17T15:42:46.608Z,3.50
2022-11-17T15:45:13.357Z,3.60
2022-11-17T15:47:40.024Z,3.43
2022-11-17T15:50:10.983Z,3.43
2022-11-17T15:53:02.224Z,3.17
2022-11-17T15:55:25.851Z,3.53
2022-11-17T15:57:54.196Z,3.00
2022-11-17T16:00:21.401Z,3.10
2022-11-17T16:02:48.777Z,2.90
2022-11-17T16:05:15.632Z,3.10
2022-11-17T16:07:42.559Z,3.20
2022-11-17T16:10:10.191Z,3.10
2022-11-17T16:12:36.945Z,3.53
2022-11-17T16:15:05.216Z,3.47
2022-11-17T16:17:32.262Z,3.50
2022-11-17T16:20:00.358Z,3.50
2022-11-17T16:22:27.188Z,3.63
2022-11-17T16:24:54.151Z,3.30
2022-11-17T16:27:20.902Z,3.20
2022-11-17T16:29:47.623Z,3.70
2022-11-17T16:32:14.506Z,3.30
2022-11-17T16:34:41.980Z,3.43
2022-11-17T16:37:08.762Z,3.30
2022-11-17T16:39:35.694Z,3.40
2022-11-17T16:42:02.510Z,3.00
2022-11-17T16:44:29.338Z,3.20
2022-11-17T16:46:57.079Z,3.00
2022-11-17T16:49:23.960Z,3.17
2022-11-17T16:51:56.274Z,3.13
2022-11-17T16:54:23.008Z,2.80
2022-11-17T16:56:49.902Z,2.90
2022-11-17T16:59:18.001Z,2.70
2022-11-17T17:01:45.385Z,3.20
2022-11-17T17:04:12.929Z,3.17
2022-11-17T17:06:45.475Z,3.23
2022-11-17T17:09:13.962Z,2.90
2022-11-17T17:11:41.494Z,2.93
2022-11-17T17:14:12.487Z,3.20
2022-11-17T17:16:40.734Z,2.70
2022-11-17T17:19:10.033Z,2.90
2022-11-17T17:21:38.770Z,2.83
2022-11-17T17:24:08.469Z,3.00
2022-11-17T17:26:36.646Z,3.10
2022-11-17T17:29:09.139Z,3.50
2022-11-17T17:31:38.865Z,2.90
2022-11-17T17:34:06.735Z,2.53
2022-11-17T17:36:34.896Z,3.10
2022-11-17T17:39:04.686Z,2.63
2022-11-17T17:41:35.030Z,2.57
2022-11-17T17:44:05.893Z,2.40
2022-11-17T17:46:35.380Z,2.20
2022-11-17T17:49:02.380Z,2.30
2022-11-17T17:51:31.114Z,2.47
2022-11-17T17:54:00.893Z,2.00
2022-11-17T17:56:30.678Z,2.37
2022-11-17T17:58:57.942Z,2.27
2022-11-17T18:01:35.871Z,2.17
2022-11-17T18:04:05.626Z,2.10
2022-11-17T18:06:37.406Z,1.93
2022-11-17T18:09:09.447Z,1.70
2022-11-17T18:11:37.193Z,1.93
2022-11-17T18:14:04.573Z,2.00
2022-11-17T18:16:33.770Z,1.70
2022-11-17T18:19:05.609Z,1.97
2022-11-17T18:21:33.292Z,2.00
2022-11-17T18:24:01.406Z,1.77
2022-11-17T18:26:30.394Z,1.83
2022-11-17T18:29:02.498Z,2.30
2022-11-17T18:31:32.269Z,1.73
2022-11-17T18:34:06.551Z,1.80
2022-11-17T18:36:36.680Z,1.60
2022-11-17T18:39:03.713Z,1.70
2022-11-17T18:41:33.856Z,2.20
2022-11-17T18:44:01.188Z,2.07
2022-11-17T18:46:32.399Z,1.97
2022-11-17T18:48:59.847Z,1.93
2022-11-17T18:51:31.915Z,1.73
2022-11-17T18:54:01.672Z,1.73
2022-11-17T18:56:32.335Z,1.80
2022-11-17T18:58:59.454Z,1.70
2022-11-17T19:01:29.138Z,1.70
2022-11-17T19:04:00.807Z,1.53
2022-11-17T19:06:28.016Z,1.83
2022-11-17T19:08:55.237Z,1.90
2022-11-17T19:11:23.105Z,2.13
2022-11-17T19:13:50.143Z,2.07
2022-11-17T19:16:26.620Z,2.37
2022-11-17T19:18:54.786Z,2.10
2022-11-17T19:21:33.807Z,2.70
2022-11-17T19:24:03.517Z,2.70
2022-11-17T19:26:36.090Z,3.00
2022-11-17T19:29:15.596Z,2.47
2022-11-17T19:31:42.837Z,2.60
2022-11-17T19:34:09.806Z,2.57
2022-11-17T19:36:36.809Z,2.30
2022-11-17T19:39:04.570Z,2.30
2022-11-17T19:41:33.690Z,2.40
2022-11-17T19:44:06.250Z,2.27
2022-11-17T19:46:33.859Z,2.50
2022-11-17T19:49:00.700Z,2.70
2022-11-17T19:51:32.603Z,2.43
2022-11-17T19:54:02.973Z,2.10
2022-11-17T19:56:30.417Z,2.30
2022-11-17T19:58:57.248Z,2.00
2022-11-17T20:01:28.612Z,2.40
2022-11-17T20:03:57.524Z,2.00
2022-11-17T20:06:29.773Z,2.17
2022-11-17T20:08:57.520Z,2.10
2022-11-17T20:11:26.856Z,2.40
2022-11-17T20:13:57.124Z,2.07
2022-11-17T20:16:26.408Z,2.40
2022-11-17T20:18:55.292Z,2.00
2022-11-17T20:21:22.978Z,2.50
2022-11-17T20:23:49.940Z,2.20
2022-11-17T20:26:20.286Z,2.30
2022-11-17T20:28:48.204Z,2.40
2022-11-17T20:31:24.430Z,2.37
2022-11-17T20:33:53.746Z,2.40
2022-11-17T20:36:21.521Z,2.33
2022-11-17T20:39:11.770Z,2.37
2022-11-17T20:41:38.510Z,2.27
2022-11-17T20:44:05.613Z,2.10
2022-11-17T20:46:36.031Z,2.40
2022-11-17T20:49:04.047Z,2.30
2022-11-17T20:51:30.814Z,2.37
2022-11-17T20:53:57.837Z,2.27
2022-11-17T20:56:24.553Z,2.30
2022-11-17T20:58:51.311Z,2.20
2022-11-17T21:01:21.833Z,2.00
2022-11-17T21:03:51.033Z,2.20
2022-11-17T21:06:19.031Z,2.20
2022-11-17T21:08:46.718Z,2.20
2022-11-17T21:11:55.395Z,2.40
2022-11-17T21:14:22.659Z,1.97
2022-11-17T21:16:49.946Z,2.10
2022-11-17T21:19:17.536Z,2.20
2022-11-17T21:21:44.990Z,2.30
2022-11-17T21:24:12.375Z,2.07
2022-11-17T21:26:39.392Z,1.87
2022-11-17T21:29:07.198Z,1.90
2022-11-17T21:31:35.445Z,2.00
2022-11-17T21:34:05.426Z,1.93
2022-11-17T21:36:33.889Z,2.23
2022-11-17T21:39:00.868Z,1.80
2022-11-17T21:41:30.146Z,1.97
2022-11-17T21:44:02.111Z,1.80
2022-11-17T21:46:33.948Z,1.97
2022-11-17T21:49:01.204Z,1.80
2022-11-17T21:51:33.764Z,1.63
2022-11-17T21:54:02.575Z,1.90
2022-11-17T21:56:29.546Z,1.80
2022-11-17T21:58:58.424Z,1.80
2022-11-17T22:01:25.986Z,1.80
2022-11-17T22:03:52.720Z,1.93
2022-11-17T22:06:22.833Z,1.87
2022-11-17T22:08:50.791Z,1.80
2022-11-17T22:11:38.574Z,2.10
2022-11-17T22:14:13.050Z,1.80
2022-11-17T22:16:45.170Z,1.90
2022-11-17T22:19:13.970Z,1.97
2022-11-17T22:21:41.730Z,1.70
2022-11-17T22:24:13.009Z,1.70
2022-11-17T22:26:41.522Z,1.63
2022-11-17T22:29:12.690Z,1.80
2022-11-17T22:31:39.476Z,2.00
2022-11-17T22:34:06.256Z,1.57
2022-11-17T22:36:33.217Z,1.70
2022-11-17T22:38:59.925Z,1.93
2022-11-17T22:41:26.952Z,1.90
2022-11-17T22:43:55.613Z,1.87
2022-11-17T22:46:25.583Z,2.10
2022-11-17T22:48:52.793Z,1.80
2022-11-17T22:51:38.671Z,2.00
2022-11-17T22:54:08.046Z,2.10
2022-11-17T22:56:38.474Z,1.90
2022-11-17T22:59:05.537Z,2.10
2022-11-17T23:01:32.498Z,2.20
2022-11-17T23:04:00.633Z,2.23
2022-11-17T23:06:27.862Z,2.23
2022-11-17T23:08:55.958Z,1.90
2022-11-17T23:11:37.154Z,2.00
2022-11-17T23:14:07.108Z,1.97
2022-11-17T23:16:34.032Z,1.83
2022-11-17T23:19:01.060Z,1.90
2022-11-17T23:21:27.836Z,1.77
2022-11-17T23:23:56.277Z,2.00
2022-11-17T23:26:23.247Z,2.00
2022-11-17T23:28:49.970Z,2.00
2022-11-17T23:31:18.275Z,1.77
2022-11-17T23:33:46.650Z,1.80
2022-11-17T23:36:19.467Z,2.10
2022-11-17T23:38:47.500Z,1.87
2022-11-17T23:41:17.188Z,1.80
2022-11-17T23:43:44.145Z,1.83
2022-11-17T23:46:15.039Z,2.00
2022-11-17T23:48:43.093Z,1.83
2022-11-17T23:51:14.953Z,1.90
2022-11-17T23:53:42.023Z,1.90
2022-11-17T23:56:09.983Z,1.97
2022-11-17T23:58:37.733Z,1.97
